createdAt,value
2018-07-01T00:02:07.946Z,14.31
2018-07-01T00:05:12.586Z,14.20
2018-07-01T00:08:16.995Z,14.19
2018-07-01T00:11:21.466Z,14.17
2018-07-01T00:14:26.561Z,14.14
2018-07-01T00:17:31.320Z,14.12
2018-07-01T00:20:35.695Z,14.08
2018-07-01T00:23:40.131Z,14.02
2018-07-01T00:26:45.383Z,14.05
2018-07-01T00:29:50.221Z,14.06
2018-07-01T00:32:54.516Z,14.03
2018-07-01T00:35:58.817Z,14.00
2018-07-01T00:39:03.314Z,13.98
2018-07-01T00:42:07.659Z,13.87
2018-07-01T00:45:11.947Z,13.89
2018-07-01T00:48:16.554Z,13.85
2018-07-01T00:51:21.462Z,13.71
2018-07-01T00:54:26.620Z,13.70
2018-07-01T00:57:30.925Z,13.67
2018-07-01T01:00:35.710Z,13.68
2018-07-01T01:03:40.014Z,13.65
2018-07-01T01:06:44.379Z,13.68
2018-07-01T01:09:48.925Z,13.61
2018-07-01T01:12:53.522Z,13.58
2018-07-01T01:15:58.598Z,13.47
2018-07-01T01:19:03.046Z,13.40
2018-07-01T01:22:07.326Z,13.40
2018-07-01T01:25:11.637Z,13.38
2018-07-01T01:28:16.509Z,13.29
2018-07-01T01:31:20.874Z,13.24
2018-07-01T01:34:25.940Z,13.25
2018-07-01T01:37:30.372Z,13.11
2018-07-01T01:40:40.693Z,13.11
2018-07-01T01:44:03.745Z,13.04
2018-07-01T01:47:14.095Z,13.07
2018-07-01T01:50:23.889Z,13.06
2018-07-01T01:53:34.236Z,13.06
2018-07-01T01:56:50.762Z,13.00
2018-07-01T02:01:03.475Z,12.93
2018-07-01T02:04:15.962Z,12.86
2018-07-01T02:07:24.505Z,12.85
2018-07-01T02:10:29.032Z,12.80
2018-07-01T02:13:35.082Z,12.68
2018-07-01T02:16:42.579Z,12.69
2018-07-01T02:19:47.013Z,12.61
2018-07-01T02:22:58.793Z,12.66
2018-07-01T02:26:03.459Z,12.51
2018-07-01T02:29:07.806Z,12.48
2018-07-01T02:32:12.198Z,12.47
2018-07-01T02:35:16.828Z,12.48
2018-07-01T02:38:21.385Z,12.47
2018-07-01T02:41:25.657Z,12.38
2018-07-01T02:44:30.062Z,12.37
2018-07-01T02:47:34.331Z,12.29
2018-07-01T02:50:39.731Z,12.28
2018-07-01T02:53:44.062Z,12.22
2018-07-01T02:56:48.353Z,12.26
2018-07-01T02:59:52.714Z,12.24
2018-07-01T03:02:57.348Z,12.19
2018-07-01T03:06:01.889Z,12.17
2018-07-01T03:09:11.891Z,11.97
2018-07-01T03:12:16.246Z,11.99
2018-07-01T03:15:20.717Z,12.01
2018-07-01T03:18:25.493Z,12.00
2018-07-01T03:21:29.793Z,11.99
2018-07-01T03:24:34.333Z,11.98
2018-07-01T03:27:38.632Z,11.88
2018-07-01T03:30:44.170Z,11.91
2018-07-01T03:33:48.441Z,11.88
2018-07-01T03:36:53.721Z,11.91
2018-07-01T03:39:58.073Z,11.98
2018-07-01T03:43:03.361Z,11.81
2018-07-01T03:46:07.671Z,11.86
2018-07-01T03:49:12.123Z,11.93
2018-07-01T03:52:16.910Z,11.84
2018-07-01T03:55:21.353Z,11.79
2018-07-01T03:58:25.720Z,11.75
2018-07-01T04:01:30.043Z,11.84
2018-07-01T04:04:34.365Z,11.86
2018-07-01T04:07:38.680Z,11.93
2018-07-01T04:10:43.087Z,11.88
2018-07-01T04:13:47.394Z,11.79
2018-07-01T04:16:52.710Z,11.81
2018-07-01T04:19:57.248Z,11.89
2018-07-01T04:23:01.570Z,11.86
2018-07-01T04:26:06.173Z,11.86
2018-07-01T04:29:10.902Z,11.88
2018-07-01T04:32:15.475Z,11.90
2018-07-01T04:35:19.794Z,12.01
2018-07-01T04:38:24.349Z,12.16
2018-07-01T04:41:28.683Z,12.25
2018-07-01T04:44:34.657Z,12.27
2018-07-01T04:47:39.135Z,12.33
2018-07-01T04:50:43.414Z,12.40
2018-07-01T04:53:47.700Z,12.40
2018-07-01T04:56:52.007Z,12.48
2018-07-01T04:59:57.896Z,12.62
2018-07-01T05:03:03.003Z,12.70
2018-07-01T05:06:07.330Z,12.77
2018-07-01T05:09:13.697Z,12.78
2018-07-01T05:12:18.688Z,12.65
2018-07-01T05:15:23.269Z,12.84
2018-07-01T05:18:27.777Z,12.84
2018-07-01T05:21:32.098Z,12.97
2018-07-01T05:24:36.386Z,12.91
2018-07-01T05:27:41.288Z,13.02
2018-07-01T05:30:46.591Z,12.98
2018-07-01T05:33:50.920Z,13.17
2018-07-01T05:36:55.255Z,13.21
2018-07-01T05:39:59.541Z,13.33
2018-07-01T05:43:03.844Z,13.47
2018-07-01T05:46:08.302Z,13.62
2018-07-01T05:49:12.602Z,13.57
2018-07-01T05:52:16.964Z,13.64
2018-07-01T05:55:22.034Z,13.80
2018-07-01T05:58:26.453Z,13.83
2018-07-01T06:01:31.095Z,13.93
2018-07-01T06:04:35.474Z,14.35
2018-07-01T06:07:39.979Z,14.97
2018-07-01T06:10:44.286Z,15.48
2018-07-01T06:13:49.188Z,15.92
2018-07-01T06:16:53.637Z,15.99
2018-07-01T06:19:58.754Z,16.08
2018-07-01T06:23:03.179Z,16.53
2018-07-01T06:26:08.095Z,16.44
2018-07-01T06:29:12.482Z,16.85
2018-07-01T06:32:17.082Z,16.60
2018-07-01T06:36:01.172Z,16.76
2018-07-01T06:39:43.179Z,17.53
2018-07-01T06:42:49.251Z,17.15
2018-07-01T06:45:54.291Z,17.28
2018-07-01T06:48:59.717Z,18.26
2018-07-01T06:52:04.984Z,18.60
2018-07-01T06:55:09.355Z,18.76
2018-07-01T06:58:13.977Z,18.99
2018-07-01T07:01:19.373Z,18.80
2018-07-01T07:04:24.522Z,19.71
2018-07-01T07:07:29.930Z,19.63
2018-07-01T07:10:34.234Z,19.22
2018-07-01T07:13:38.593Z,20.23
2018-07-01T07:16:43.095Z,20.89
2018-07-01T07:19:47.374Z,20.74
2018-07-01T07:22:52.001Z,19.16
2018-07-01T07:25:56.253Z,19.71
2018-07-01T07:29:00.958Z,19.39
2018-07-01T07:32:05.968Z,19.55
2018-07-01T07:35:10.230Z,20.04
2018-07-01T07:38:14.525Z,18.90
2018-07-01T07:41:19.870Z,18.54
2018-07-01T07:44:24.394Z,18.71
2018-07-01T07:47:29.989Z,18.72
2018-07-01T07:50:34.356Z,18.57
2018-07-01T07:53:39.633Z,18.82
2018-07-01T07:56:44.342Z,18.85
2018-07-01T07:59:49.046Z,19.36
2018-07-01T08:02:54.065Z,18.48
2018-07-01T08:05:58.727Z,18.59
2018-07-01T08:09:03.582Z,19.22
2018-07-01T08:12:08.262Z,19.19
2018-07-01T08:15:14.593Z,19.78
2018-07-01T08:18:19.317Z,19.57
2018-07-01T08:21:24.043Z,19.74
2018-07-01T08:24:30.449Z,20.73
2018-07-01T08:27:34.940Z,19.55
2018-07-01T08:30:39.923Z,19.75
2018-07-01T08:33:44.725Z,19.85
2018-07-01T08:36:49.324Z,19.45
2018-07-01T08:39:54.272Z,19.48
2018-07-01T08:42:58.853Z,19.27
2018-07-01T08:46:03.464Z,19.96
2018-07-01T08:49:08.054Z,19.40
2018-07-01T08:52:13.371Z,20.31
2018-07-01T08:55:18.178Z,19.19
2018-07-01T08:58:23.077Z,19.08
2018-07-01T09:01:27.476Z,19.57
2018-07-01T09:04:32.367Z,19.69
2018-07-01T09:07:36.851Z,19.84
2018-07-01T09:10:42.490Z,20.19
2018-07-01T09:13:47.195Z,20.38
2018-07-01T09:16:51.696Z,20.92
2018-07-01T09:19:56.200Z,21.01
2018-07-01T09:23:00.759Z,21.10
2018-07-01T09:26:06.160Z,21.16
2018-07-01T09:29:11.352Z,21.16
2018-07-01T09:32:16.093Z,21.07
2018-07-01T09:35:21.470Z,20.57
2018-07-01T09:39:03.985Z,20.57
2018-07-01T09:42:10.562Z,20.81
2018-07-01T09:45:15.658Z,21.07
2018-07-01T09:48:20.473Z,21.29
2018-07-01T09:51:25.187Z,21.60
2018-07-01T09:54:29.541Z,20.84
2018-07-01T09:57:34.545Z,19.84
2018-07-01T10:00:39.306Z,20.64
2018-07-01T10:03:43.880Z,20.42
2018-07-01T10:06:48.242Z,20.45
2018-07-01T10:09:52.612Z,20.71
2018-07-01T10:12:57.365Z,20.63
2018-07-01T10:16:01.892Z,21.19
2018-07-01T10:19:06.636Z,20.68
2018-07-01T10:22:11.517Z,20.60
2018-07-01T10:25:16.387Z,21.07
2018-07-01T10:28:21.550Z,21.44
2018-07-01T10:31:26.082Z,20.65
2018-07-01T10:34:30.704Z,20.95
2018-07-01T10:37:35.394Z,21.25
2018-07-01T10:40:39.840Z,21.57
2018-07-01T10:43:47.199Z,21.74
2018-07-01T10:46:51.608Z,20.92
2018-07-01T10:49:56.256Z,20.65
2018-07-01T10:53:00.694Z,21.12
2018-07-01T10:56:05.244Z,21.25
2018-07-01T10:59:10.082Z,21.29
2018-07-01T11:02:15.186Z,21.61
2018-07-01T11:05:19.583Z,21.43
2018-07-01T11:08:24.062Z,20.79
2018-07-01T11:11:28.433Z,20.70
2018-07-01T11:14:35.243Z,21.00
2018-07-01T11:17:40.027Z,20.79
2018-07-01T11:20:44.597Z,20.97
2018-07-01T11:23:49.477Z,21.00
2018-07-01T11:26:54.280Z,21.39
2018-07-01T11:29:58.730Z,20.88
2018-07-01T11:33:03.337Z,20.91
2018-07-01T11:36:07.792Z,20.92
2018-07-01T11:39:12.572Z,21.11
2018-07-01T11:42:18.007Z,21.09
2018-07-01T11:45:22.705Z,21.20
2018-07-01T11:48:27.338Z,21.40
2018-07-01T11:51:31.907Z,21.30
2018-07-01T11:54:36.465Z,21.56
2018-07-01T11:57:41.227Z,21.58
2018-07-01T12:00:45.549Z,21.73
2018-07-01T12:03:50.219Z,21.64
2018-07-01T12:06:54.794Z,21.78
2018-07-01T12:09:59.382Z,21.86
2018-07-01T12:13:03.848Z,21.54
2018-07-01T12:16:08.745Z,21.57
2018-07-01T12:19:13.223Z,21.67
2018-07-01T12:22:17.660Z,21.63
2018-07-01T12:25:22.073Z,21.53
2018-07-01T12:28:26.234Z,21.63
2018-07-01T12:31:30.842Z,21.79
2018-07-01T12:34:35.228Z,21.76
2018-07-01T12:37:40.036Z,21.86
2018-07-01T12:40:44.671Z,21.96
2018-07-01T12:43:49.065Z,22.15
2018-07-01T12:46:53.585Z,22.11
2018-07-01T12:49:58.053Z,21.85
2018-07-01T12:53:02.407Z,22.00
2018-07-01T12:56:07.047Z,21.82
2018-07-01T12:59:11.401Z,22.05
2018-07-01T13:02:15.697Z,22.23
2018-07-01T13:05:20.092Z,22.03
2018-07-01T13:08:24.370Z,22.15
2018-07-01T13:11:28.738Z,21.60
2018-07-01T13:14:33.485Z,21.83
2018-07-01T13:17:37.804Z,22.07
2018-07-01T13:20:42.236Z,22.07
2018-07-01T13:23:46.613Z,22.01
2018-07-01T13:26:51.178Z,22.13
2018-07-01T13:29:55.640Z,22.05
2018-07-01T13:33:00.112Z,21.89
2018-07-01T13:36:04.478Z,21.81
2018-07-01T13:39:11.478Z,22.10
2018-07-01T13:42:16.516Z,22.07
2018-07-01T13:45:20.904Z,22.15
2018-07-01T13:48:25.317Z,22.38
2018-07-01T13:51:29.930Z,22.39
2018-07-01T13:54:34.976Z,22.24
2018-07-01T13:57:39.515Z,22.22
2018-07-01T14:00:43.962Z,21.93
2018-07-01T14:03:48.831Z,22.03
2018-07-01T14:06:53.170Z,22.14
2018-07-01T14:09:58.013Z,22.27
2018-07-01T14:13:03.230Z,22.27
2018-07-01T14:16:07.692Z,22.35
2018-07-01T14:19:12.057Z,22.32
2018-07-01T14:22:17.178Z,22.50
2018-07-01T14:25:23.348Z,22.57
2018-07-01T14:28:27.840Z,21.98
2018-07-01T14:31:32.478Z,22.13
2018-07-01T14:34:36.828Z,21.85
2018-07-01T14:37:41.381Z,22.07
2018-07-01T14:40:45.949Z,22.20
2018-07-01T14:43:50.408Z,22.17
2018-07-01T14:46:55.398Z,22.07
2018-07-01T14:49:59.882Z,22.06
2018-07-01T14:53:04.479Z,21.98
2018-07-01T14:56:09.439Z,22.05
2018-07-01T14:59:13.872Z,21.99
2018-07-01T15:02:18.634Z,21.99
2018-07-01T15:05:23.611Z,22.03
2018-07-01T15:08:28.384Z,21.98
2018-07-01T15:11:32.864Z,21.99
2018-07-01T15:14:37.411Z,22.13
2018-07-01T15:17:41.946Z,22.13
2018-07-01T15:20:46.797Z,22.20
2018-07-01T15:23:51.202Z,22.06
2018-07-01T15:26:56.095Z,21.95
2018-07-01T15:30:00.589Z,21.88
2018-07-01T15:33:06.039Z,22.01
2018-07-01T15:36:10.359Z,21.93
2018-07-01T15:39:15.014Z,21.89
2018-07-01T15:42:19.619Z,21.78
2018-07-01T15:45:24.084Z,21.83
2018-07-01T15:48:28.523Z,21.88
2018-07-01T15:51:33.179Z,21.93
2018-07-01T15:54:37.658Z,21.98
2018-07-01T15:57:42.137Z,21.87
2018-07-01T16:00:46.478Z,21.76
2018-07-01T16:03:50.843Z,21.74
2018-07-01T16:06:55.357Z,21.74
2018-07-01T16:09:59.941Z,21.77
2018-07-01T16:13:04.289Z,21.76
2018-07-01T16:16:08.874Z,21.70
2018-07-01T16:19:13.269Z,21.76
2018-07-01T16:22:17.721Z,21.59
2018-07-01T16:25:27.724Z,21.55
2018-07-01T16:28:37.454Z,21.55
2018-07-01T16:31:42.491Z,21.65
2018-07-01T16:34:47.125Z,21.58
2018-07-01T16:37:51.573Z,21.59
2018-07-01T16:40:56.148Z,21.64
2018-07-01T16:44:00.774Z,21.71
2018-07-01T16:47:05.450Z,21.99
2018-07-01T16:50:09.929Z,22.42
2018-07-01T16:53:14.428Z,23.46
2018-07-01T16:56:18.961Z,24.37
2018-07-01T16:59:24.537Z,25.47
2018-07-01T17:02:29.003Z,24.61
2018-07-01T17:05:34.001Z,24.17
2018-07-01T17:08:38.455Z,23.25
2018-07-01T17:11:43.173Z,22.38
2018-07-01T17:14:47.537Z,21.93
2018-07-01T17:17:52.989Z,21.69
2018-07-01T17:20:57.535Z,21.57
2018-07-01T17:24:02.986Z,21.32
2018-07-01T17:27:08.496Z,21.24
2018-07-01T17:30:13.282Z,20.96
2018-07-01T17:33:22.275Z,20.98
2018-07-01T17:36:26.761Z,20.95
2018-07-01T17:39:31.110Z,20.80
2018-07-01T17:42:35.621Z,20.61
2018-07-01T17:45:40.463Z,20.57
2018-07-01T17:48:45.039Z,20.45
2018-07-01T17:51:49.607Z,20.34
2018-07-01T17:54:54.764Z,20.29
2018-07-01T17:57:59.376Z,20.22
2018-07-01T18:01:05.198Z,20.13
2018-07-01T18:04:09.934Z,20.01
2018-07-01T18:07:14.606Z,19.98
2018-07-01T18:10:19.324Z,19.87
2018-07-01T18:13:24.471Z,19.80
2018-07-01T18:16:31.103Z,19.69
2018-07-01T18:19:35.886Z,19.55
2018-07-01T18:23:09.766Z,19.49
2018-07-01T18:25:45.312Z,19.40
2018-07-01T18:28:59.161Z,19.26
2018-07-01T18:31:54.449Z,19.18
2018-07-01T18:34:59.227Z,19.08
2018-07-01T18:38:03.755Z,18.98
2018-07-01T18:41:08.245Z,18.88
2018-07-01T18:44:12.755Z,18.79
2018-07-01T18:47:17.813Z,18.67
2018-07-01T18:50:22.323Z,18.60
2018-07-01T18:53:27.634Z,18.46
2018-07-01T18:56:32.438Z,18.33
2018-07-01T18:59:37.198Z,18.27
2018-07-01T19:02:42.276Z,18.12
2018-07-01T19:05:47.096Z,18.07
2018-07-01T19:08:51.670Z,17.92
2018-07-01T19:11:55.893Z,17.85
2018-07-01T19:15:01.043Z,17.72
2018-07-01T19:18:06.713Z,17.62
2018-07-01T19:21:11.285Z,17.51
2018-07-01T19:24:15.753Z,17.41
2018-07-01T19:27:20.562Z,17.31
2018-07-01T19:30:26.797Z,17.19
2018-07-01T19:33:31.970Z,17.08
2018-07-01T19:36:36.985Z,16.85
2018-07-01T19:39:41.875Z,16.75
2018-07-01T19:42:47.047Z,16.72
2018-07-01T19:45:51.561Z,16.58
2018-07-01T19:48:56.068Z,16.41
2018-07-01T19:52:00.681Z,16.29
2018-07-01T19:55:05.273Z,16.13
2018-07-01T19:58:10.108Z,16.00
2018-07-01T20:01:15.040Z,15.96
2018-07-01T20:04:20.163Z,15.86
2018-07-01T20:07:25.021Z,15.76
2018-07-01T20:10:29.465Z,15.75
2018-07-01T20:13:34.897Z,15.68
2018-07-01T20:16:39.448Z,15.60
2018-07-01T20:19:43.831Z,15.54
2018-07-01T20:22:49.469Z,15.37
2018-07-01T20:25:54.024Z,15.22
2018-07-01T20:28:59.386Z,15.13
2018-07-01T20:32:04.052Z,14.97
2018-07-01T20:35:08.682Z,14.90
2018-07-01T20:38:13.586Z,14.76
2018-07-01T20:41:18.457Z,14.68
2018-07-01T20:44:22.965Z,14.59
2018-07-01T20:47:27.405Z,14.47
2018-07-01T20:50:33.240Z,14.48
2018-07-01T20:53:38.023Z,14.43
2018-07-01T20:56:42.966Z,14.47
2018-07-01T20:59:47.474Z,14.39
2018-07-01T21:02:51.769Z,14.31
2018-07-01T21:05:57.361Z,14.24
2018-07-01T21:09:34.376Z,14.30
2018-07-01T21:12:40.270Z,14.33
2018-07-01T21:15:44.837Z,14.30
2018-07-01T21:18:49.354Z,14.24
2018-07-01T21:21:53.671Z,14.20
2018-07-01T21:24:58.074Z,14.09
2018-07-01T21:28:02.672Z,13.96
2018-07-01T21:31:09.055Z,13.94
2018-07-01T21:34:13.389Z,13.80
2018-07-01T21:37:17.848Z,13.81
2018-07-01T21:40:22.235Z,13.70
2018-07-01T21:43:26.826Z,13.64
2018-07-01T21:46:31.431Z,13.71
2018-07-01T21:49:50.988Z,13.72
2018-07-01T21:52:56.154Z,13.65
2018-07-01T21:56:00.505Z,13.66
2018-07-01T21:59:04.900Z,13.66
2018-07-01T22:02:09.313Z,13.63
2018-07-01T22:05:13.804Z,13.58
2018-07-01T22:08:18.186Z,13.67
2018-07-01T22:11:53.061Z,13.62
2018-07-01T22:15:21.627Z,13.57
2018-07-01T22:18:58.104Z,13.58
2018-07-01T22:22:04.116Z,13.40
2018-07-01T22:25:08.671Z,13.43
2018-07-01T22:28:13.800Z,13.54
2018-07-01T22:31:18.361Z,13.53
2018-07-01T22:34:23.749Z,13.49
2018-07-01T22:37:28.379Z,13.46
2018-07-01T22:40:32.882Z,13.45
2018-07-01T22:43:37.683Z,13.38
2018-07-01T22:46:42.974Z,13.39
2018-07-01T22:49:49.366Z,13.39
2018-07-01T22:52:53.958Z,13.29
2018-07-01T22:55:58.271Z,13.26
2018-07-01T22:59:02.935Z,13.22
2018-07-01T23:03:18.921Z,13.20
2018-07-01T23:06:24.674Z,13.17
2018-07-01T23:09:29.090Z,13.12
2018-07-01T23:12:34.044Z,13.13
2018-07-01T23:15:38.485Z,13.06
2018-07-01T23:18:42.847Z,13.07
2018-07-01T23:21:47.861Z,13.00
2018-07-01T23:24:52.257Z,12.98
2018-07-01T23:27:56.577Z,12.89
2018-07-01T23:31:01.095Z,12.85
2018-07-01T23:34:05.736Z,12.89
2018-07-01T23:37:10.103Z,12.86
2018-07-01T23:40:14.675Z,12.87
2018-07-01T23:43:19.908Z,12.84
2018-07-01T23:46:24.363Z,12.80
2018-07-01T23:49:28.762Z,12.76
2018-07-01T23:52:33.246Z,12.70
2018-07-01T23:55:37.745Z,12.64
2018-07-01T23:58:42.642Z,12.62
